sensor_id;sensor_type;location;lat;lon;timestamp;pressure;altitude;pressure_sealevel;temperature;humidity
58879;BME280;44660;42.664;23.266;2022-07-29T00:00:35;94712.38;;;19.82;64.36
58879;BME280;44660;42.664;23.266;2022-07-29T00:03:01;94710.72;;;19.81;64.52
58879;BME280;44660;42.664;23.266;2022-07-29T00:05:26;94712.38;;;19.82;64.74
58879;BME280;44660;42.664;23.266;2022-07-29T00:07:52;94721.69;;;19.71;65.52
58879;BME280;44660;42.664;23.266;2022-07-29T00:10:17;94729.44;;;19.58;66.23
58879;BME280;44660;42.664;23.266;2022-07-29T00:12:43;94720.59;;;19.39;66.25
58879;BME280;44660;42.664;23.266;2022-07-29T00:15:08;94718.44;;;19.55;65.75
58879;BME280;44660;42.664;23.266;2022-07-29T00:17:34;94721.28;;;19.64;65.63
58879;BME280;44660;42.664;23.266;2022-07-29T00:19:59;94713.00;;;19.74;65.86
58879;BME280;44660;42.664;23.266;2022-07-29T00:22:25;94706.53;;;19.75;65.75
58879;BME280;44660;42.664;23.266;2022-07-29T00:24:50;94693.91;;;19.70;65.41
58879;BME280;44660;42.664;23.266;2022-07-29T00:27:16;94695.81;;;19.70;65.58
58879;BME280;44660;42.664;23.266;2022-07-29T00:29:42;94709.72;;;19.77;65.73
58879;BME280;44660;42.664;23.266;2022-07-29T00:32:07;94708.31;;;19.66;65.38
58879;BME280;44660;42.664;23.266;2022-07-29T00:34:33;94706.31;;;19.71;65.50
58879;BME280;44660;42.664;23.266;2022-07-29T00:37:17;94708.41;;;19.61;65.33
58879;BME280;44660;42.664;23.266;2022-07-29T00:39:42;94694.47;;;19.53;65.27
58879;BME280;44660;42.664;23.266;2022-07-29T00:42:07;94716.31;;;19.71;65.28
58879;BME280;44660;42.664;23.266;2022-07-29T00:44:38;94695.09;;;19.50;65.42
58879;BME280;44660;42.664;23.266;2022-07-29T00:47:04;94709.31;;;19.70;65.28
58879;BME280;44660;42.664;23.266;2022-07-29T00:49:29;94666.25;;;19.32;64.98
58879;BME280;44660;42.664;23.266;2022-07-29T00:51:55;94715.88;;;19.64;64.73
58879;BME280;44660;42.664;23.266;2022-07-29T00:54:20;94704.19;;;19.54;64.78
58879;BME280;44660;42.664;23.266;2022-07-29T00:56:46;94704.13;;;19.40;64.98
58879;BME280;44660;42.664;23.266;2022-07-29T00:59:11;94712.28;;;19.54;64.79
58879;BME280;44660;42.664;23.266;2022-07-29T01:01:37;94708.34;;;19.47;65.17
58879;BME280;44660;42.664;23.266;2022-07-29T01:04:02;94720.47;;;19.63;64.79
58879;BME280;44660;42.664;23.266;2022-07-29T01:06:28;94691.88;;;19.48;64.76
58879;BME280;44660;42.664;23.266;2022-07-29T01:08:53;94708.47;;;19.55;64.73
58879;BME280;44660;42.664;23.266;2022-07-29T01:11:19;94706.44;;;19.47;64.79
58879;BME280;44660;42.664;23.266;2022-07-29T01:13:45;94697.00;;;19.31;65.24
58879;BME280;44660;42.664;23.266;2022-07-29T01:16:21;94696.13;;;19.35;65.34
58879;BME280;44660;42.664;23.266;2022-07-29T01:18:54;94698.63;;;19.32;65.61
58879;BME280;44660;42.664;23.266;2022-07-29T01:21:24;94701.22;;;19.37;65.73
58879;BME280;44660;42.664;23.266;2022-07-29T01:24:11;94686.66;;;19.38;65.83
58879;BME280;44660;42.664;23.266;2022-07-29T01:26:46;94669.63;;;19.23;65.82
58879;BME280;44660;42.664;23.266;2022-07-29T01:29:37;94695.63;;;19.33;66.02
58879;BME280;44660;42.664;23.266;2022-07-29T01:32:10;94646.59;;;18.98;65.99
58879;BME280;44660;42.664;23.266;2022-07-29T01:34:54;94688.00;;;19.21;66.94
58879;BME280;44660;42.664;23.266;2022-07-29T01:37:29;94679.56;;;19.09;66.60
58879;BME280;44660;42.664;23.266;2022-07-29T01:39:59;94684.34;;;19.12;66.75
58879;BME280;44660;42.664;23.266;2022-07-29T01:45:12;94686.91;;;19.22;66.42
58879;BME280;44660;42.664;23.266;2022-07-29T01:48:12;94691.84;;;19.34;66.58
58879;BME280;44660;42.664;23.266;2022-07-29T01:53:30;94671.47;;;19.09;66.96
58879;BME280;44660;42.664;23.266;2022-07-29T01:55:57;94685.38;;;19.16;67.26
58879;BME280;44660;42.664;23.266;2022-07-29T01:58:24;94676.91;;;19.23;66.82
58879;BME280;44660;42.664;23.266;2022-07-29T02:00:51;94686.81;;;19.28;66.97
58879;BME280;44660;42.664;23.266;2022-07-29T02:03:18;94674.75;;;19.25;66.64
58879;BME280;44660;42.664;23.266;2022-07-29T02:05:45;94676.63;;;19.24;66.75
58879;BME280;44660;42.664;23.266;2022-07-29T02:08:13;94665.97;;;19.33;66.35
58879;BME280;44660;42.664;23.266;2022-07-29T02:10:40;94665.09;;;19.38;66.52
58879;BME280;44660;42.664;23.266;2022-07-29T02:13:09;94667.06;;;19.32;66.74
58879;BME280;44660;42.664;23.266;2022-07-29T02:15:37;94655.66;;;19.21;66.71
58879;BME280;44660;42.664;23.266;2022-07-29T02:18:09;94658.00;;;19.09;67.05
58879;BME280;44660;42.664;23.266;2022-07-29T02:20:37;94650.84;;;19.18;67.35
58879;BME280;44660;42.664;23.266;2022-07-29T02:23:06;94669.47;;;19.34;67.35
58879;BME280;44660;42.664;23.266;2022-07-29T02:25:32;94647.56;;;19.21;67.24
58879;BME280;44660;42.664;23.266;2022-07-29T02:27:59;94656.06;;;19.29;67.18
58879;BME280;44660;42.664;23.266;2022-07-29T02:30:27;94661.09;;;19.35;67.51
58879;BME280;44660;42.664;23.266;2022-07-29T02:32:54;94658.88;;;19.37;67.59
58879;BME280;44660;42.664;23.266;2022-07-29T02:35:21;94644.28;;;19.24;67.14
58879;BME280;44660;42.664;23.266;2022-07-29T02:37:47;94639.88;;;19.29;66.96
58879;BME280;44660;42.664;23.266;2022-07-29T02:40:34;94648.50;;;19.31;66.95
58879;BME280;44660;42.664;23.266;2022-07-29T02:43:02;94632.31;;;19.31;67.31
58879;BME280;44660;42.664;23.266;2022-07-29T02:45:31;94639.41;;;19.27;67.08
58879;BME280;44660;42.664;23.266;2022-07-29T02:47:59;94637.78;;;19.25;67.41
58879;BME280;44660;42.664;23.266;2022-07-29T02:50:37;94579.53;;;18.97;67.54
58879;BME280;44660;42.664;23.266;2022-07-29T02:53:16;94636.53;;;19.37;67.14
58879;BME280;44660;42.664;23.266;2022-07-29T02:55:49;94643.53;;;19.38;66.99
58879;BME280;44660;42.664;23.266;2022-07-29T02:58:35;94645.53;;;19.46;67.07
58879;BME280;44660;42.664;23.266;2022-07-29T03:01:05;94635.66;;;19.41;66.45
58879;BME280;44660;42.664;23.266;2022-07-29T03:03:36;94644.19;;;19.30;66.71
58879;BME280;44660;42.664;23.266;2022-07-29T03:06:02;94651.09;;;19.36;66.71
58879;BME280;44660;42.664;23.266;2022-07-29T03:08:28;94635.41;;;19.24;66.69
58879;BME280;44660;42.664;23.266;2022-07-29T03:10:55;94633.66;;;19.14;66.99
58879;BME280;44660;42.664;23.266;2022-07-29T03:13:21;94642.75;;;19.18;67.39
58879;BME280;44660;42.664;23.266;2022-07-29T03:15:47;94624.81;;;18.95;67.65
58879;BME280;44660;42.664;23.266;2022-07-29T03:18:13;94626.41;;;18.96;68.00
58879;BME280;44660;42.664;23.266;2022-07-29T03:20:39;94650.28;;;19.21;68.05
58879;BME280;44660;42.664;23.266;2022-07-29T03:23:06;94662.22;;;19.15;68.28
58879;BME280;44660;42.664;23.266;2022-07-29T03:25:32;94663.81;;;19.16;68.22
58879;BME280;44660;42.664;23.266;2022-07-29T03:27:58;94655.09;;;19.05;68.44
58879;BME280;44660;42.664;23.266;2022-07-29T03:30:24;94671.81;;;19.21;68.17
58879;BME280;44660;42.664;23.266;2022-07-29T03:32:50;94647.81;;;19.06;68.05
58879;BME280;44660;42.664;23.266;2022-07-29T03:35:16;94659.00;;;19.13;68.20
58879;BME280;44660;42.664;23.266;2022-07-29T03:37:43;94646.06;;;19.15;68.14
58879;BME280;44660;42.664;23.266;2022-07-29T03:40:10;94627.22;;;18.96;68.28
58879;BME280;44660;42.664;23.266;2022-07-29T03:42:40;94651.34;;;19.20;68.41
58879;BME280;44660;42.664;23.266;2022-07-29T03:45:10;94653.03;;;19.16;68.42
58879;BME280;44660;42.664;23.266;2022-07-29T03:47:42;94659.44;;;19.20;68.45
58879;BME280;44660;42.664;23.266;2022-07-29T03:50:11;94668.03;;;19.22;68.11
58879;BME280;44660;42.664;23.266;2022-07-29T03:52:38;94612.22;;;18.90;68.25
58879;BME280;44660;42.664;23.266;2022-07-29T03:55:04;94665.84;;;19.24;68.07
58879;BME280;44660;42.664;23.266;2022-07-29T03:57:31;94646.22;;;19.05;68.67
58879;BME280;44660;42.664;23.266;2022-07-29T03:59:58;94676.22;;;19.17;68.66
58879;BME280;44660;42.664;23.266;2022-07-29T04:02:25;94663.38;;;19.09;68.63
58879;BME280;44660;42.664;23.266;2022-07-29T04:04:51;94666.69;;;19.06;68.70
58879;BME280;44660;42.664;23.266;2022-07-29T04:07:17;94666.75;;;19.20;68.72
58879;BME280;44660;42.664;23.266;2022-07-29T04:09:43;94655.44;;;19.18;68.62
58879;BME280;44660;42.664;23.266;2022-07-29T04:12:08;94672.31;;;19.23;68.07
58879;BME280;44660;42.664;23.266;2022-07-29T04:14:35;94654.38;;;19.00;68.65
58879;BME280;44660;42.664;23.266;2022-07-29T04:17:01;94676.22;;;19.17;68.96
58879;BME280;44660;42.664;23.266;2022-07-29T04:19:27;94615.75;;;18.85;68.81
58879;BME280;44660;42.664;23.266;2022-07-29T04:21:52;94655.97;;;19.20;68.47
58879;BME280;44660;42.664;23.266;2022-07-29T04:24:18;94670.22;;;19.20;68.73
58879;BME280;44660;42.664;23.266;2022-07-29T04:26:45;94664.44;;;19.27;68.72
58879;BME280;44660;42.664;23.266;2022-07-29T04:29:10;94642.84;;;19.13;68.40
58879;BME280;44660;42.664;23.266;2022-07-29T04:31:37;94675.88;;;19.38;68.47
58879;BME280;44660;42.664;23.266;2022-07-29T04:34:03;94683.78;;;19.48;68.12
58879;BME280;44660;42.664;23.266;2022-07-29T04:36:28;94672.09;;;19.39;67.98
58879;BME280;44660;42.664;23.266;2022-07-29T04:38:54;94685.41;;;19.49;67.62
58879;BME280;44660;42.664;23.266;2022-07-29T04:41:19;94678.09;;;19.50;67.61
58879;BME280;44660;42.664;23.266;2022-07-29T04:43:45;94660.69;;;19.42;67.80
58879;BME280;44660;42.664;23.266;2022-07-29T04:46:10;94638.53;;;19.31;67.22
58879;BME280;44660;42.664;23.266;2022-07-29T04:48:36;94682.09;;;19.52;67.66
58879;BME280;44660;42.664;23.266;2022-07-29T04:51:01;94668.69;;;19.47;67.43
58879;BME280;44660;42.664;23.266;2022-07-29T04:53:27;94693.91;;;19.70;67.00
58879;BME280;44660;42.664;23.266;2022-07-29T04:55:52;94672.81;;;19.58;67.37
58879;BME280;44660;42.664;23.266;2022-07-29T04:58:18;94697.91;;;19.73;67.38
58879;BME280;44660;42.664;23.266;2022-07-29T05:00:43;94691.13;;;19.75;67.78
58879;BME280;44660;42.664;23.266;2022-07-29T05:03:09;94685.19;;;19.93;67.19
58879;BME280;44660;42.664;23.266;2022-07-29T05:05:34;94665.59;;;19.87;67.09
58879;BME280;44660;42.664;23.266;2022-07-29T05:07:59;94681.59;;;19.83;67.10
58879;BME280;44660;42.664;23.266;2022-07-29T05:10:25;94678.81;;;19.88;66.83
58879;BME280;44660;42.664;23.266;2022-07-29T05:12:51;94695.19;;;20.06;67.02
58879;BME280;44660;42.664;23.266;2022-07-29T05:15:16;94680.41;;;20.03;68.06
58879;BME280;44660;42.664;23.266;2022-07-29T05:17:43;94689.00;;;20.19;67.37
58879;BME280;44660;42.664;23.266;2022-07-29T05:20:08;94692.81;;;20.32;68.10
58879;BME280;44660;42.664;23.266;2022-07-29T05:22:34;94701.72;;;20.47;68.30
58879;BME280;44660;42.664;23.266;2022-07-29T05:24:59;94667.81;;;20.27;67.59
58879;BME280;44660;42.664;23.266;2022-07-29T05:27:25;94696.78;;;20.35;66.39
58879;BME280;44660;42.664;23.266;2022-07-29T05:29:50;94705.19;;;20.47;66.26
58879;BME280;44660;42.664;23.266;2022-07-29T05:32:17;94690.97;;;20.55;67.27
58879;BME280;44660;42.664;23.266;2022-07-29T05:34:42;94693.78;;;20.50;65.88
58879;BME280;44660;42.664;23.266;2022-07-29T05:37:08;94689.56;;;20.58;66.51
58879;BME280;44660;42.664;23.266;2022-07-29T05:39:33;94697.41;;;20.74;66.90
58879;BME280;44660;42.664;23.266;2022-07-29T05:41:59;94683.66;;;20.70;65.93
58879;BME280;44660;42.664;23.266;2022-07-29T05:44:24;94672.16;;;20.64;64.72
58879;BME280;44660;42.664;23.266;2022-07-29T05:46:50;94682.72;;;20.88;64.10
58879;BME280;44660;42.664;23.266;2022-07-29T05:49:15;94690.88;;;21.11;63.93
58879;BME280;44660;42.664;23.266;2022-07-29T05:51:41;94704.03;;;21.27;62.92
58879;BME280;44660;42.664;23.266;2022-07-29T05:54:06;94699.69;;;21.40;63.34
58879;BME280;44660;42.664;23.266;2022-07-29T05:56:32;94689.22;;;21.47;62.82
58879;BME280;44660;42.664;23.266;2022-07-29T05:58:57;94700.72;;;21.75;62.00
58879;BME280;44660;42.664;23.266;2022-07-29T06:01:23;94705.06;;;21.85;61.57
58879;BME280;44660;42.664;23.266;2022-07-29T06:03:49;94693.81;;;21.92;61.15
58879;BME280;44660;42.664;23.266;2022-07-29T06:06:14;94692.78;;;22.10;61.46
58879;BME280;44660;42.664;23.266;2022-07-29T06:08:40;94693.41;;;22.39;59.99
58879;BME280;44660;42.664;23.266;2022-07-29T06:11:06;94705.41;;;22.73;59.96
58879;BME280;44660;42.664;23.266;2022-07-29T06:13:32;94655.03;;;22.54;58.69
58879;BME280;44660;42.664;23.266;2022-07-29T06:15:57;94684.41;;;22.78;58.13
58879;BME280;44660;42.664;23.266;2022-07-29T06:18:23;94690.47;;;23.02;59.50
58879;BME280;44660;42.664;23.266;2022-07-29T06:20:51;94695.28;;;23.31;57.84
58879;BME280;44660;42.664;23.266;2022-07-29T06:23:17;94704.50;;;23.65;56.56
58879;BME280;44660;42.664;23.266;2022-07-29T06:25:42;94713.41;;;23.92;55.50
58879;BME280;44660;42.664;23.266;2022-07-29T06:28:08;94706.63;;;24.16;54.74
58879;BME280;44660;42.664;23.266;2022-07-29T06:30:34;94708.69;;;24.19;53.44
58879;BME280;44660;42.664;23.266;2022-07-29T06:32:59;94699.25;;;24.25;53.34
58879;BME280;44660;42.664;23.266;2022-07-29T06:35:27;94689.22;;;24.46;53.75
58879;BME280;44660;42.664;23.266;2022-07-29T06:37:52;94698.38;;;24.72;52.32
58879;BME280;44660;42.664;23.266;2022-07-29T06:40:17;94688.66;;;24.92;53.42
58879;BME280;44660;42.664;23.266;2022-07-29T06:43:02;94679.41;;;25.14;52.64
58879;BME280;44660;42.664;23.266;2022-07-29T06:45:27;94693.06;;;25.48;51.05
58879;BME280;44660;42.664;23.266;2022-07-29T06:47:52;94681.75;;;25.58;48.53
58879;BME280;44660;42.664;23.266;2022-07-29T06:50:18;94684.03;;;25.35;49.17
58879;BME280;44660;42.664;23.266;2022-07-29T06:52:43;94690.56;;;25.42;50.02
58879;BME280;44660;42.664;23.266;2022-07-29T06:55:09;94676.19;;;25.54;50.27
58879;BME280;44660;42.664;23.266;2022-07-29T06:57:34;94676.84;;;25.85;50.40
58879;BME280;44660;42.664;23.266;2022-07-29T07:00:00;94669.81;;;25.96;49.78
58879;BME280;44660;42.664;23.266;2022-07-29T07:02:25;94689.88;;;26.37;49.34
58879;BME280;44660;42.664;23.266;2022-07-29T07:04:51;94679.53;;;26.43;47.76
58879;BME280;44660;42.664;23.266;2022-07-29T07:07:17;94668.44;;;26.23;47.84
58879;BME280;44660;42.664;23.266;2022-07-29T07:09:42;94676.25;;;26.37;47.41
58879;BME280;44660;42.664;23.266;2022-07-29T07:12:08;94680.56;;;26.51;49.02
58879;BME280;44660;42.664;23.266;2022-07-29T07:14:33;94685.13;;;26.59;47.37
58879;BME280;44660;42.664;23.266;2022-07-29T07:16:59;94673.88;;;26.61;46.83
58879;BME280;44660;42.664;23.266;2022-07-29T07:19:26;94678.31;;;26.65;47.47
58879;BME280;44660;42.664;23.266;2022-07-29T07:21:52;94676.50;;;26.82;48.17
58879;BME280;44660;42.664;23.266;2022-07-29T07:24:18;94674.63;;;26.98;47.69
58879;BME280;44660;42.664;23.266;2022-07-29T07:26:44;94672.66;;;27.11;46.93
58879;BME280;44660;42.664;23.266;2022-07-29T07:29:09;94667.63;;;27.26;47.07
58879;BME280;44660;42.664;23.266;2022-07-29T07:31:36;94670.44;;;27.42;47.00
58879;BME280;44660;42.664;23.266;2022-07-29T07:34:01;94668.06;;;27.40;45.58
58879;BME280;44660;42.664;23.266;2022-07-29T07:36:27;94674.19;;;27.65;46.60
58879;BME280;44660;42.664;23.266;2022-07-29T07:38:52;94660.78;;;27.60;46.06
58879;BME280;44660;42.664;23.266;2022-07-29T07:41:17;94670.41;;;27.70;45.37
58879;BME280;44660;42.664;23.266;2022-07-29T07:43:43;94666.19;;;27.73;44.62
58879;BME280;44660;42.664;23.266;2022-07-29T07:46:08;94676.16;;;27.81;44.54
58879;BME280;44660;42.664;23.266;2022-07-29T07:48:34;94677.94;;;27.89;45.45
58879;BME280;44660;42.664;23.266;2022-07-29T07:51:00;94665.59;;;27.95;44.64
58879;BME280;44660;42.664;23.266;2022-07-29T07:53:25;94678.63;;;28.30;45.12
58879;BME280;44660;42.664;23.266;2022-07-29T07:55:51;94667.09;;;28.57;44.18
58879;BME280;44660;42.664;23.266;2022-07-29T07:58:16;94669.47;;;28.90;44.51
58879;BME280;44660;42.664;23.266;2022-07-29T08:00:42;94647.13;;;28.88;44.37
58879;BME280;44660;42.664;23.266;2022-07-29T08:03:08;94663.03;;;29.18;41.21
58879;BME280;44660;42.664;23.266;2022-07-29T08:05:33;94664.25;;;29.21;41.16
58879;BME280;44660;42.664;23.266;2022-07-29T08:07:59;94630.03;;;29.11;40.63
58879;BME280;44660;42.664;23.266;2022-07-29T08:10:24;94658.84;;;29.63;40.26
58879;BME280;44660;42.664;23.266;2022-07-29T08:13:09;94645.44;;;29.58;39.53
58879;BME280;44660;42.664;23.266;2022-07-29T08:15:39;94648.47;;;29.73;38.32
58879;BME280;44660;42.664;23.266;2022-07-29T08:18:04;94664.22;;;29.79;38.23
58879;BME280;44660;42.664;23.266;2022-07-29T08:20:30;94663.97;;;30.08;39.17
58879;BME280;44660;42.664;23.266;2022-07-29T08:22:57;94651.44;;;30.30;38.53
58879;BME280;44660;42.664;23.266;2022-07-29T08:25:22;94658.88;;;30.53;37.45
58879;BME280;44660;42.664;23.266;2022-07-29T08:27:48;94650.56;;;30.76;36.53
58879;BME280;44660;42.664;23.266;2022-07-29T08:30:13;94646.69;;;30.77;36.16
58879;BME280;44660;42.664;23.266;2022-07-29T08:32:39;94656.53;;;30.82;35.97
58879;BME280;44660;42.664;23.266;2022-07-29T08:35:04;94656.78;;;31.00;36.93
58879;BME280;44660;42.664;23.266;2022-07-29T08:37:30;94663.25;;;31.11;36.25
58879;BME280;44660;42.664;23.266;2022-07-29T08:39:56;94648.00;;;31.17;35.51
58879;BME280;44660;42.664;23.266;2022-07-29T08:42:21;94661.25;;;31.42;35.55
58879;BME280;44660;42.664;23.266;2022-07-29T08:44:47;94649.50;;;31.45;34.81
58879;BME280;44660;42.664;23.266;2022-07-29T08:47:16;94639.56;;;31.64;35.41
58879;BME280;44660;42.664;23.266;2022-07-29T08:49:42;94647.06;;;32.08;34.92
58879;BME280;44660;42.664;23.266;2022-07-29T08:52:10;94654.00;;;32.36;33.83
58879;BME280;44660;42.664;23.266;2022-07-29T08:54:37;94656.56;;;32.63;33.63
58879;BME280;44660;42.664;23.266;2022-07-29T08:57:04;94645.94;;;32.61;32.16
58879;BME280;44660;42.664;23.266;2022-07-29T08:59:30;94640.47;;;32.65;32.67
58879;BME280;44660;42.664;23.266;2022-07-29T09:01:59;94636.56;;;32.69;31.85
58879;BME280;44660;42.664;23.266;2022-07-29T09:04:29;94652.16;;;32.51;33.25
58879;BME280;44660;42.664;23.266;2022-07-29T09:06:57;94603.00;;;32.46;32.76
58879;BME280;44660;42.664;23.266;2022-07-29T09:09:25;94635.56;;;32.96;32.68
58879;BME280;44660;42.664;23.266;2022-07-29T09:11:51;94635.59;;;33.03;31.09
58879;BME280;44660;42.664;23.266;2022-07-29T09:14:18;94636.00;;;33.05;31.06
58879;BME280;44660;42.664;23.266;2022-07-29T09:16:50;94641.78;;;32.85;31.79
58879;BME280;44660;42.664;23.266;2022-07-29T09:21:50;94631.31;;;33.09;31.71
58879;BME280;44660;42.664;23.266;2022-07-29T09:27:24;94615.66;;;33.28;30.36
58879;BME280;44660;42.664;23.266;2022-07-29T09:29:57;94633.84;;;33.47;30.87
58879;BME280;44660;42.664;23.266;2022-07-29T09:32:23;94622.06;;;33.53;30.14
58879;BME280;44660;42.664;23.266;2022-07-29T09:34:48;94626.00;;;33.60;30.46
58879;BME280;44660;42.664;23.266;2022-07-29T09:37:26;94579.56;;;33.62;29.55
58879;BME280;44660;42.664;23.266;2022-07-29T09:39:52;94611.16;;;33.93;29.85
58879;BME280;44660;42.664;23.266;2022-07-29T09:42:28;94617.84;;;34.10;28.98
58879;BME280;44660;42.664;23.266;2022-07-29T09:44:54;94620.63;;;34.17;29.44
58879;BME280;44660;42.664;23.266;2022-07-29T09:47:19;94606.44;;;34.26;28.65
58879;BME280;44660;42.664;23.266;2022-07-29T09:49:57;94612.31;;;34.28;28.65
58879;BME280;44660;42.664;23.266;2022-07-29T09:52:25;94616.69;;;34.47;29.47
58879;BME280;44660;42.664;23.266;2022-07-29T09:54:51;94609.97;;;34.45;28.78
58879;BME280;44660;42.664;23.266;2022-07-29T09:57:25;94603.69;;;34.48;28.88
58879;BME280;44660;42.664;23.266;2022-07-29T10:00:02;94611.97;;;34.52;28.87
58879;BME280;44660;42.664;23.266;2022-07-29T10:02:30;94595.81;;;34.46;29.04
58879;BME280;44660;42.664;23.266;2022-07-29T10:04:56;94603.28;;;34.46;29.41
58879;BME280;44660;42.664;23.266;2022-07-29T10:07:22;94596.97;;;34.20;29.61
58879;BME280;44660;42.664;23.266;2022-07-29T10:09:56;94593.84;;;34.36;29.39
58879;BME280;44660;42.664;23.266;2022-07-29T10:12:23;94588.31;;;34.47;29.27
58879;BME280;44660;42.664;23.266;2022-07-29T10:14:50;94573.31;;;34.59;29.53
58879;BME280;44660;42.664;23.266;2022-07-29T10:17:16;94538.28;;;34.34;28.72
58879;BME280;44660;42.664;23.266;2022-07-29T10:19:42;94585.97;;;34.53;28.49
58879;BME280;44660;42.664;23.266;2022-07-29T10:22:09;94579.22;;;34.32;29.43
58879;BME280;44660;42.664;23.266;2022-07-29T10:24:36;94574.53;;;34.11;28.29
58879;BME280;44660;42.664;23.266;2022-07-29T10:27:04;94528.41;;;33.79;28.62
58879;BME280;44660;42.664;23.266;2022-07-29T10:29:30;94567.81;;;33.97;29.38
58879;BME280;44660;42.664;23.266;2022-07-29T10:32:09;94569.41;;;34.24;29.28
58879;BME280;44660;42.664;23.266;2022-07-29T10:35:06;94567.81;;;34.23;29.47
58879;BME280;44660;42.664;23.266;2022-07-29T10:43:36;94563.81;;;34.74;28.43
58879;BME280;44660;42.664;23.266;2022-07-29T10:46:03;94559.50;;;34.73;28.27
58879;BME280;44660;42.664;23.266;2022-07-29T10:48:29;94539.41;;;34.55;28.11
58879;BME280;44660;42.664;23.266;2022-07-29T10:51:00;94559.13;;;34.57;28.87
58879;BME280;44660;42.664;23.266;2022-07-29T10:53:51;94539.00;;;34.60;28.68
58879;BME280;44660;42.664;23.266;2022-07-29T11:01:43;94540.13;;;34.88;28.13
58879;BME280;44660;42.664;23.266;2022-07-29T11:04:09;94531.13;;;34.62;28.61
58879;BME280;44660;42.664;23.266;2022-07-29T11:09:23;94508.31;;;34.43;28.60
58879;BME280;44660;42.664;23.266;2022-07-29T11:11:49;94522.09;;;34.32;29.01
58879;BME280;44660;42.664;23.266;2022-07-29T11:14:15;94526.84;;;34.46;28.44
58879;BME280;44660;42.664;23.266;2022-07-29T11:17:04;94522.13;;;34.36;29.05
58879;BME280;44660;42.664;23.266;2022-07-29T11:19:30;94511.06;;;34.50;29.09
58879;BME280;44660;42.664;23.266;2022-07-29T11:21:56;94527.56;;;34.65;28.74
58879;BME280;44660;42.664;23.266;2022-07-29T11:24:27;94518.88;;;34.70;28.05
58879;BME280;44660;42.664;23.266;2022-07-29T11:30:00;94522.91;;;34.44;29.33
58879;BME280;44660;42.664;23.266;2022-07-29T11:32:37;94509.91;;;34.15;29.15
58879;BME280;44660;42.664;23.266;2022-07-29T11:35:18;94522.91;;;34.18;28.69
58879;BME280;44660;42.664;23.266;2022-07-29T11:37:46;94515.03;;;34.06;28.35
58879;BME280;44660;42.664;23.266;2022-07-29T11:40:13;94522.50;;;34.16;28.79
58879;BME280;44660;42.664;23.266;2022-07-29T11:42:40;94481.59;;;33.97;28.76
58879;BME280;44660;42.664;23.266;2022-07-29T11:45:13;94522.13;;;33.96;28.74
58879;BME280;44660;42.664;23.266;2022-07-29T11:47:57;94507.56;;;34.03;28.63
58879;BME280;44660;42.664;23.266;2022-07-29T11:52:57;94490.22;;;34.02;28.23
58879;BME280;44660;42.664;23.266;2022-07-29T11:55:24;94505.56;;;34.22;28.06
58879;BME280;44660;42.664;23.266;2022-07-29T11:57:57;94500.81;;;34.26;27.54
58879;BME280;44660;42.664;23.266;2022-07-29T12:00:30;94502.41;;;34.23;27.95
58879;BME280;44660;42.664;23.266;2022-07-29T12:02:57;94501.63;;;34.23;27.45
58879;BME280;44660;42.664;23.266;2022-07-29T12:05:34;94500.47;;;34.02;28.25
58879;BME280;44660;42.664;23.266;2022-07-29T12:08:17;94504.03;;;34.06;28.14
58879;BME280;44660;42.664;23.266;2022-07-29T12:10:46;94496.91;;;34.12;27.55
58879;BME280;44660;42.664;23.266;2022-07-29T12:13:12;94481.56;;;33.82;28.00
58879;BME280;44660;42.664;23.266;2022-07-29T12:15:38;94495.38;;;33.93;27.69
58879;BME280;44660;42.664;23.266;2022-07-29T12:18:18;94491.44;;;33.94;27.60
58879;BME280;44660;42.664;23.266;2022-07-29T12:20:44;94481.97;;;33.81;27.78
58879;BME280;44660;42.664;23.266;2022-07-29T12:23:13;94502.06;;;34.03;28.00
58879;BME280;44660;42.664;23.266;2022-07-29T12:25:41;94501.63;;;34.15;27.45
58879;BME280;44660;42.664;23.266;2022-07-29T12:28:12;94500.06;;;34.00;27.38
58879;BME280;44660;42.664;23.266;2022-07-29T12:30:46;94448.47;;;33.79;27.61
58879;BME280;44660;42.664;23.266;2022-07-29T12:33:19;94468.16;;;33.56;28.40
58879;BME280;44660;42.664;23.266;2022-07-29T12:35:48;94479.59;;;33.58;27.80
58879;BME280;44660;42.664;23.266;2022-07-29T12:38:14;94481.94;;;33.34;27.89
58879;BME280;44660;42.664;23.266;2022-07-29T12:40:40;94481.56;;;33.46;28.11
58879;BME280;44660;42.664;23.266;2022-07-29T12:43:14;94491.41;;;33.47;27.80
58879;BME280;44660;42.664;23.266;2022-07-29T12:45:43;94489.00;;;33.28;28.58
58879;BME280;44660;42.664;23.266;2022-07-29T12:48:09;94479.16;;;33.34;27.79
58879;BME280;44660;42.664;23.266;2022-07-29T12:50:55;94468.56;;;33.36;28.55
58879;BME280;44660;42.664;23.266;2022-07-29T12:53:20;94473.28;;;33.39;27.54
58879;BME280;44660;42.664;23.266;2022-07-29T12:55:48;94450.38;;;33.10;28.16
58879;BME280;44660;42.664;23.266;2022-07-29T12:58:46;94463.38;;;33.24;28.15
58879;BME280;44660;42.664;23.266;2022-07-29T13:01:14;94429.88;;;32.85;28.15
58879;BME280;44660;42.664;23.266;2022-07-29T13:03:52;94469.25;;;33.00;28.64
58879;BME280;44660;42.664;23.266;2022-07-29T13:06:36;94440.09;;;32.78;28.41
58879;BME280;44660;42.664;23.266;2022-07-29T13:09:06;94465.25;;;32.87;28.51
58879;BME280;44660;42.664;23.266;2022-07-29T13:11:33;94452.69;;;32.89;28.39
58879;BME280;44660;42.664;23.266;2022-07-29T13:13:58;94445.13;;;32.72;28.16
58879;BME280;44660;42.664;23.266;2022-07-29T13:16:24;94438.06;;;32.71;28.83
58879;BME280;44660;42.664;23.266;2022-07-29T13:19:03;94443.16;;;32.65;28.17
58879;BME280;44660;42.664;23.266;2022-07-29T13:21:28;94445.50;;;32.67;28.72
58879;BME280;44660;42.664;23.266;2022-07-29T13:23:53;94435.31;;;32.71;28.36
58879;BME280;44660;42.664;23.266;2022-07-29T13:26:19;94451.13;;;32.85;28.70